createdAt,value
2022-12-08T00:01:12.077Z,8.07
2022-12-08T00:03:38.728Z,8.13
2022-12-08T00:06:06.156Z,8.27
2022-12-08T00:08:32.580Z,7.53
2022-12-08T00:10:58.977Z,8.55
2022-12-08T00:13:25.399Z,8.63
2022-12-08T00:15:51.799Z,8.40
2022-12-08T00:18:18.232Z,8.82
2022-12-08T00:20:44.634Z,8.93
2022-12-08T00:23:11.039Z,7.75
2022-12-08T00:25:37.450Z,7.47
2022-12-08T00:28:03.918Z,8.95
2022-12-08T00:30:30.331Z,8.88
2022-12-08T00:32:56.714Z,8.65
2022-12-08T00:35:23.137Z,8.27
2022-12-08T00:37:49.545Z,7.30
2022-12-08T00:40:15.973Z,7.43
2022-12-08T00:42:42.361Z,7.40
2022-12-08T00:45:09.099Z,7.05
2022-12-08T00:47:35.513Z,6.80
2022-12-08T00:50:02.427Z,6.40
2022-12-08T00:52:29.049Z,5.93
2022-12-08T00:54:55.432Z,6.00
2022-12-08T00:57:21.858Z,6.30
2022-12-08T00:59:48.240Z,5.63
2022-12-08T01:02:14.791Z,6.25
2022-12-08T01:04:41.228Z,6.10
2022-12-08T01:07:07.756Z,5.00
2022-12-08T01:09:34.210Z,4.50
2022-12-08T01:12:00.608Z,4.72
2022-12-08T01:14:27.020Z,4.60
2022-12-08T01:16:53.487Z,4.10
2022-12-08T01:19:19.942Z,4.72
2022-12-08T01:21:46.376Z,4.22
2022-12-08T01:24:14.078Z,3.90
2022-12-08T01:26:40.515Z,3.80
2022-12-08T01:29:06.914Z,3.78
2022-12-08T01:31:33.326Z,4.20
2022-12-08T01:33:59.730Z,4.18
2022-12-08T01:36:30.206Z,4.47
2022-12-08T01:38:57.739Z,3.78
2022-12-08T01:41:25.384Z,4.88
2022-12-08T01:44:00.765Z,3.85
2022-12-08T01:46:28.342Z,4.43
2022-12-08T01:49:00.549Z,3.67
2022-12-08T01:51:27.153Z,3.55
2022-12-08T01:53:53.556Z,3.40
2022-12-08T01:56:33.187Z,3.90
2022-12-08T01:58:59.586Z,2.90
2022-12-08T02:01:26.062Z,3.40
2022-12-08T02:03:57.177Z,3.15
2022-12-08T02:06:23.584Z,3.10
2022-12-08T02:08:50.024Z,3.15
2022-12-08T02:11:16.573Z,2.95
2022-12-08T02:13:44.053Z,2.95
2022-12-08T02:16:37.063Z,3.45
2022-12-08T02:19:37.467Z,3.90
2022-12-08T02:22:10.858Z,3.55
2022-12-08T02:24:48.826Z,3.25
2022-12-08T02:27:38.248Z,3.38
2022-12-08T02:30:07.515Z,3.13
2022-12-08T02:32:50.831Z,3.78
2022-12-08T02:35:45.251Z,3.45
2022-12-08T02:38:52.719Z,3.45
2022-12-08T02:41:34.114Z,3.08
2022-12-08T02:44:13.574Z,3.67
2022-12-08T02:46:48.261Z,3.10
2022-12-08T02:49:14.721Z,3.50
2022-12-08T02:51:41.279Z,3.45
2022-12-08T02:54:07.680Z,3.05
2022-12-08T02:56:50.634Z,3.50
2022-12-08T02:59:20.807Z,3.40
2022-12-08T03:02:08.461Z,3.67
2022-12-08T03:05:01.586Z,3.53
2022-12-08T03:07:33.588Z,3.58
2022-12-08T03:10:05.946Z,3.70
2022-12-08T03:12:57.250Z,3.05
2022-12-08T03:15:23.646Z,3.05
2022-12-08T03:17:54.990Z,3.30
2022-12-08T03:20:22.968Z,3.20
2022-12-08T03:22:49.480Z,3.03
2022-12-08T03:25:16.466Z,3.28
2022-12-08T03:27:42.870Z,2.83
2022-12-08T03:30:09.714Z,2.50
2022-12-08T03:32:42.929Z,3.00
2022-12-08T03:35:11.522Z,2.53
2022-12-08T03:37:38.363Z,2.60
2022-12-08T03:40:06.520Z,2.75
2022-12-08T03:42:33.176Z,2.33
2022-12-08T03:44:59.587Z,2.83
2022-12-08T03:47:25.977Z,2.22
2022-12-08T03:49:52.385Z,2.50
2022-12-08T03:52:18.769Z,2.72
2022-12-08T03:54:45.182Z,2.25
2022-12-08T03:57:11.611Z,2.38
2022-12-08T03:59:38.053Z,2.17
2022-12-08T04:02:04.538Z,2.13
2022-12-08T04:04:31.034Z,2.15
2022-12-08T04:06:57.447Z,1.98
2022-12-08T04:09:23.836Z,1.42
2022-12-08T04:11:50.261Z,1.70
2022-12-08T04:14:16.654Z,1.77
2022-12-08T04:16:43.051Z,1.60
2022-12-08T04:19:09.442Z,1.20
2022-12-08T04:21:35.845Z,1.10
2022-12-08T04:24:02.234Z,1.02
2022-12-08T04:26:28.712Z,1.00
2022-12-08T04:28:55.128Z,1.45
2022-12-08T04:31:21.597Z,1.08
2022-12-08T04:33:48.038Z,1.20
2022-12-08T04:36:14.447Z,1.10
2022-12-08T04:38:40.849Z,1.08
2022-12-08T04:41:07.349Z,1.00
2022-12-08T04:43:33.771Z,1.10
2022-12-08T04:46:00.165Z,1.17
2022-12-08T04:48:26.578Z,1.17
2022-12-08T04:50:52.986Z,1.27
2022-12-08T04:53:19.397Z,1.23
2022-12-08T04:55:45.802Z,1.20
2022-12-08T04:58:13.396Z,1.23
2022-12-08T05:00:40.202Z,1.05
2022-12-08T05:03:06.640Z,1.17
2022-12-08T05:05:33.086Z,1.10
2022-12-08T05:07:59.562Z,1.35
2022-12-08T05:10:26.002Z,1.17
2022-12-08T05:12:52.399Z,1.15
2022-12-08T05:15:18.793Z,1.40
2022-12-08T05:17:45.178Z,1.40
2022-12-08T05:20:11.820Z,1.30
2022-12-08T05:22:38.241Z,1.20
2022-12-08T05:25:04.953Z,1.27
2022-12-08T05:27:31.341Z,1.08
2022-12-08T05:29:57.717Z,1.20
2022-12-08T05:32:24.144Z,1.17
2022-12-08T05:34:50.547Z,1.10
2022-12-08T05:37:16.977Z,1.00
2022-12-08T05:39:43.370Z,1.13
2022-12-08T05:42:09.784Z,1.10
2022-12-08T05:44:36.157Z,0.85
2022-12-08T05:47:02.598Z,1.15
2022-12-08T05:49:28.997Z,1.10
2022-12-08T05:51:55.418Z,1.00
2022-12-08T05:54:21.873Z,0.90
2022-12-08T05:56:48.273Z,1.05
2022-12-08T05:59:14.681Z,0.80
2022-12-08T06:01:41.106Z,0.80
2022-12-08T06:04:07.598Z,0.88
2022-12-08T06:06:34.577Z,0.95
2022-12-08T06:09:02.697Z,1.02
2022-12-08T06:11:29.991Z,1.00
2022-12-08T06:13:56.692Z,1.00
2022-12-08T06:16:23.940Z,1.23
2022-12-08T06:18:50.374Z,1.05
2022-12-08T06:21:16.929Z,0.80
2022-12-08T06:23:43.360Z,0.88
2022-12-08T06:26:12.045Z,1.10
2022-12-08T06:28:39.444Z,1.27
2022-12-08T06:31:14.954Z,1.60
2022-12-08T06:33:41.381Z,1.23
2022-12-08T06:36:07.817Z,1.33
2022-12-08T06:38:35.106Z,1.50
2022-12-08T06:41:03.542Z,1.80
2022-12-08T06:43:29.925Z,1.60
2022-12-08T06:45:56.396Z,1.80
2022-12-08T06:48:22.872Z,1.77
2022-12-08T06:50:49.277Z,2.15
2022-12-08T06:53:15.814Z,2.08
2022-12-08T06:56:01.108Z,2.72
2022-12-08T06:58:27.584Z,2.40
2022-12-08T07:00:54.082Z,2.58
2022-12-08T07:03:20.589Z,2.50
2022-12-08T07:05:46.989Z,2.28
2022-12-08T07:08:13.502Z,2.05
2022-12-08T07:10:39.984Z,2.20
2022-12-08T07:13:06.405Z,2.13
2022-12-08T07:15:32.776Z,2.65
2022-12-08T07:18:00.240Z,1.80
2022-12-08T07:20:27.112Z,1.95
2022-12-08T07:22:53.575Z,2.22
2022-12-08T07:25:20.056Z,2.03
2022-12-08T07:27:46.468Z,2.65
2022-12-08T07:30:13.505Z,3.00
2022-12-08T07:32:39.890Z,2.63
2022-12-08T07:35:06.942Z,3.05
2022-12-08T07:37:33.973Z,2.40
2022-12-08T07:40:00.375Z,2.55
2022-12-08T07:42:26.829Z,2.53
2022-12-08T07:44:53.256Z,2.53
2022-12-08T07:47:19.651Z,2.83
2022-12-08T07:49:46.064Z,2.97
2022-12-08T07:52:12.481Z,2.88
2022-12-08T07:54:38.893Z,3.08
2022-12-08T07:57:05.311Z,3.10
2022-12-08T07:59:32.266Z,3.13
2022-12-08T08:02:22.319Z,3.00
2022-12-08T08:04:45.069Z,3.03
2022-12-08T08:07:11.640Z,3.70
2022-12-08T08:09:38.053Z,3.35
2022-12-08T08:12:29.519Z,3.17
2022-12-08T08:14:51.069Z,3.08
2022-12-08T08:17:17.610Z,2.80
2022-12-08T08:19:44.066Z,2.72
2022-12-08T08:22:10.454Z,2.80
2022-12-08T08:24:41.586Z,2.50
2022-12-08T08:27:11.031Z,2.35
2022-12-08T08:29:37.450Z,2.40
2022-12-08T08:32:03.912Z,2.03
2022-12-08T08:34:30.354Z,1.98
2022-12-08T08:36:56.804Z,1.88
2022-12-08T08:39:23.337Z,1.55
2022-12-08T08:41:49.757Z,2.10
2022-12-08T08:44:16.164Z,2.10
2022-12-08T08:46:42.694Z,1.90
2022-12-08T08:49:09.217Z,2.45
2022-12-08T08:51:35.635Z,2.05
2022-12-08T08:54:02.032Z,1.90
2022-12-08T08:56:28.441Z,1.90
2022-12-08T08:58:54.845Z,1.77
2022-12-08T09:01:23.317Z,1.80
2022-12-08T09:03:50.174Z,2.10
2022-12-08T09:06:16.745Z,2.20
2022-12-08T09:08:43.404Z,2.22
2022-12-08T09:11:09.936Z,1.85
2022-12-08T09:13:36.430Z,2.25
2022-12-08T09:16:05.034Z,2.25
2022-12-08T09:18:31.665Z,2.60
2022-12-08T09:21:04.193Z,2.38
2022-12-08T09:23:35.195Z,2.20
2022-12-08T09:26:02.594Z,1.90
2022-12-08T09:28:29.012Z,2.33
2022-12-08T09:30:55.430Z,2.22
2022-12-08T09:33:21.867Z,2.75
2022-12-08T09:35:48.266Z,2.85
2022-12-08T09:38:15.218Z,2.72
2022-12-08T09:40:52.625Z,2.28
2022-12-08T09:43:31.645Z,2.05
2022-12-08T09:45:58.061Z,2.70
2022-12-08T09:48:29.711Z,2.67
2022-12-08T09:50:56.831Z,2.13
2022-12-08T09:53:25.990Z,2.00
2022-12-08T09:55:59.239Z,1.80
2022-12-08T09:58:41.567Z,2.10
2022-12-08T10:01:11.341Z,1.77
2022-12-08T10:03:37.822Z,1.58
2022-12-08T10:06:16.282Z,1.90
2022-12-08T10:09:15.226Z,1.83
2022-12-08T10:11:56.850Z,1.75
2022-12-08T10:14:38.596Z,1.90
2022-12-08T10:17:11.445Z,2.13
2022-12-08T10:19:37.833Z,2.08
2022-12-08T10:22:12.232Z,1.80
2022-12-08T10:24:44.533Z,2.25
2022-12-08T10:27:11.227Z,1.90
2022-12-08T10:29:43.770Z,2.53
2022-12-08T10:32:17.578Z,2.28
2022-12-08T10:35:00.325Z,2.67
2022-12-08T10:37:26.760Z,2.22
2022-12-08T10:40:02.902Z,2.00
2022-12-08T10:42:34.315Z,2.13
2022-12-08T10:45:28.517Z,2.08
2022-12-08T10:48:13.402Z,2.10
2022-12-08T10:50:44.470Z,1.75
2022-12-08T10:53:15.710Z,2.05
2022-12-08T10:55:45.973Z,2.53
2022-12-08T10:58:40.570Z,2.38
2022-12-08T11:01:09.965Z,2.00
2022-12-08T11:03:47.438Z,2.10
2022-12-08T11:06:37.957Z,2.83
2022-12-08T11:09:17.414Z,2.38
2022-12-08T11:11:49.669Z,2.45
2022-12-08T11:14:30.521Z,2.70
2022-12-08T11:17:09.222Z,2.65
2022-12-08T11:19:54.805Z,2.88
2022-12-08T11:22:21.080Z,2.20
2022-12-08T11:24:49.263Z,2.33
2022-12-08T11:27:15.660Z,2.42
2022-12-08T11:29:42.057Z,2.20
2022-12-08T11:32:12.625Z,2.10
2022-12-08T11:34:50.590Z,2.38
2022-12-08T11:37:24.051Z,2.20
2022-12-08T11:39:51.825Z,2.35
2022-12-08T11:42:19.147Z,2.25
2022-12-08T11:44:49.575Z,2.10
2022-12-08T11:47:20.589Z,2.13
2022-12-08T11:52:23.029Z,2.17
2022-12-08T11:55:05.169Z,2.33
2022-12-08T11:57:31.625Z,2.40
2022-12-08T11:59:58.303Z,2.13
2022-12-08T12:02:26.503Z,1.90
2022-12-08T12:05:23.596Z,1.83
2022-12-08T12:08:18.028Z,1.90
2022-12-08T12:10:59.489Z,1.90
2022-12-08T12:13:32.740Z,1.73
2022-12-08T12:16:21.665Z,2.25
2022-12-08T12:18:52.401Z,2.10
2022-12-08T12:21:36.533Z,2.00
2022-12-08T12:24:07.986Z,1.60
2022-12-08T12:26:38.282Z,2.22
2022-12-08T12:29:18.812Z,2.22
2022-12-08T12:31:49.958Z,2.22
2022-12-08T12:34:29.497Z,1.77
2022-12-08T12:37:10.301Z,1.75
2022-12-08T12:40:06.949Z,1.90
2022-12-08T12:42:56.700Z,2.08
2022-12-08T12:45:24.860Z,2.38
2022-12-08T12:47:57.331Z,2.65
2022-12-08T12:50:32.825Z,2.60
2022-12-08T12:53:00.169Z,2.67
2022-12-08T12:55:27.805Z,2.70
2022-12-08T12:57:55.925Z,2.90
2022-12-08T13:00:24.095Z,2.80
2022-12-08T13:02:51.306Z,2.85
2022-12-08T13:05:25.460Z,2.90
2022-12-08T13:08:02.683Z,2.90
2022-12-08T13:10:36.798Z,2.83
2022-12-08T13:13:14.587Z,2.95
2022-12-08T13:15:50.913Z,2.97
2022-12-08T13:18:36.334Z,2.97
2022-12-08T13:21:05.535Z,2.40
2022-12-08T13:23:37.932Z,2.83
2022-12-08T13:26:19.515Z,2.85
2022-12-08T13:29:01.125Z,2.78
2022-12-08T13:32:23.112Z,2.83
2022-12-08T13:34:50.317Z,2.25
2022-12-08T13:37:31.142Z,2.65
2022-12-08T13:40:04.215Z,2.25
2022-12-08T13:43:04.892Z,2.53
2022-12-08T13:46:12.512Z,2.80
2022-12-08T13:49:13.600Z,2.22
2022-12-08T13:53:34.157Z,1.85
2022-12-08T13:55:19.740Z,2.03
2022-12-08T13:57:11.078Z,2.60
2022-12-08T13:59:43.272Z,2.20
2022-12-08T14:02:26.399Z,2.20
2022-12-08T14:07:39.383Z,2.28
2022-12-08T14:10:13.317Z,3.17
2022-12-08T14:12:40.661Z,3.10
2022-12-08T14:15:07.638Z,2.80
2022-12-08T14:17:34.061Z,3.20
2022-12-08T14:20:11.066Z,3.15
2022-12-08T14:22:38.565Z,2.95
2022-12-08T14:25:06.030Z,3.03
2022-12-08T14:27:34.367Z,2.92
2022-12-08T14:30:02.478Z,2.85
2022-12-08T14:32:34.205Z,3.13
2022-12-08T14:35:33.396Z,2.70
2022-12-08T14:38:26.026Z,2.65
2022-12-08T14:41:06.159Z,2.60
2022-12-08T14:43:32.728Z,3.25
2022-12-08T14:46:00.975Z,2.50
2022-12-08T14:48:33.455Z,2.72
2022-12-08T14:51:21.100Z,2.60
2022-12-08T14:53:58.767Z,2.65
2022-12-08T14:56:31.454Z,2.55
2022-12-08T14:59:21.069Z,2.67
2022-12-08T15:01:47.878Z,2.65
2022-12-08T15:04:14.193Z,2.53
2022-12-08T15:06:50.772Z,2.67
2022-12-08T15:09:27.137Z,2.25
2022-12-08T15:12:26.171Z,2.72
2022-12-08T15:15:09.345Z,1.98
2022-12-08T15:17:41.830Z,2.40
2022-12-08T15:20:39.099Z,2.55
2022-12-08T15:23:05.658Z,2.60
2022-12-08T15:25:32.089Z,2.47
2022-12-08T15:27:58.499Z,2.08
2022-12-08T15:30:24.982Z,2.63
2022-12-08T15:32:51.386Z,2.70
2022-12-08T15:35:17.808Z,2.55
2022-12-08T15:37:44.226Z,2.60
2022-12-08T15:40:16.674Z,2.50
2022-12-08T15:42:43.421Z,2.35
2022-12-08T15:45:16.562Z,2.60
2022-12-08T15:47:43.332Z,3.30
2022-12-08T15:50:17.087Z,2.97
2022-12-08T15:52:43.553Z,3.25
2022-12-08T15:55:13.843Z,3.47
2022-12-08T16:00:52.511Z,4.80
2022-12-08T16:09:11.965Z,8.93
2022-12-08T16:12:05.144Z,8.07
2022-12-08T16:15:38.677Z,7.45
2022-12-08T16:17:15.418Z,5.45
2022-12-08T16:25:23.341Z,6.03
2022-12-08T16:28:36.813Z,6.20
2022-12-08T16:30:38.277Z,4.47
2022-12-08T16:33:04.802Z,5.53
2022-12-08T16:35:31.272Z,6.15
2022-12-08T16:37:57.707Z,5.80
2022-12-08T16:40:24.140Z,6.20
2022-12-08T16:42:50.605Z,6.40
2022-12-08T16:45:20.674Z,6.55
2022-12-08T16:47:54.272Z,5.70
2022-12-08T16:50:31.392Z,6.13
2022-12-08T16:53:03.433Z,5.90
2022-12-08T16:55:29.836Z,5.97
2022-12-08T16:57:56.296Z,6.30
2022-12-08T17:00:24.194Z,6.85
2022-12-08T17:02:50.636Z,7.13
2022-12-08T17:05:17.877Z,6.93
2022-12-08T17:07:45.287Z,6.82
2022-12-08T17:10:14.833Z,7.38
2022-12-08T17:12:43.339Z,8.13
2022-12-08T17:15:11.785Z,6.38
2022-12-08T17:17:38.329Z,6.57
2022-12-08T17:20:09.757Z,5.93
2022-12-08T17:22:36.192Z,7.18
2022-12-08T17:25:02.935Z,6.13
2022-12-08T17:27:29.342Z,6.82
2022-12-08T17:29:55.754Z,6.53
2022-12-08T17:32:22.191Z,6.97
2022-12-08T17:34:48.697Z,6.95
2022-12-08T17:37:15.838Z,6.50
2022-12-08T17:39:43.293Z,6.40
2022-12-08T17:42:09.698Z,6.95
2022-12-08T17:44:36.094Z,6.90
2022-12-08T17:47:03.659Z,7.45
2022-12-08T17:49:30.225Z,7.28
2022-12-08T17:51:58.868Z,7.57
2022-12-08T17:54:25.385Z,8.50
2022-12-08T17:56:51.821Z,8.18
2022-12-08T17:59:18.316Z,7.25
2022-12-08T18:01:44.848Z,9.68
2022-12-08T18:04:11.413Z,9.73
2022-12-08T18:06:38.261Z,12.52
2022-12-08T18:09:05.139Z,10.60
2022-12-08T18:11:31.510Z,9.35
2022-12-08T18:13:57.915Z,8.73
2022-12-08T18:16:25.658Z,7.90
2022-12-08T18:18:52.102Z,9.55
2022-12-08T18:21:23.370Z,9.02
2022-12-08T18:23:50.470Z,8.82
2022-12-08T18:26:16.892Z,8.50
2022-12-08T18:28:43.305Z,8.50
2022-12-08T18:31:19.589Z,9.48
2022-12-08T18:33:46.662Z,8.75
2022-12-08T18:36:15.837Z,8.65
2022-12-08T18:38:42.305Z,6.63
2022-12-08T18:41:10.521Z,9.15
2022-12-08T18:43:37.046Z,8.02
2022-12-08T18:46:07.977Z,8.75
2022-12-08T18:48:36.292Z,8.50
2022-12-08T18:51:03.946Z,8.23
2022-12-08T18:53:30.364Z,7.70
2022-12-08T18:55:58.051Z,8.15
2022-12-08T18:58:24.470Z,8.55
2022-12-08T19:00:50.863Z,8.25
2022-12-08T19:03:23.452Z,8.48
2022-12-08T19:05:49.961Z,8.05
2022-12-08T19:08:16.423Z,9.40
2022-12-08T19:10:42.904Z,9.98
2022-12-08T19:13:09.981Z,9.02
2022-12-08T19:15:36.500Z,9.05
2022-12-08T19:18:07.198Z,10.38
2022-12-08T19:20:33.640Z,10.27
2022-12-08T19:23:00.036Z,11.63
2022-12-08T19:25:26.455Z,13.07
2022-12-08T19:27:55.029Z,10.30
2022-12-08T19:30:22.982Z,10.77
2022-12-08T19:32:50.949Z,8.82
2022-12-08T19:35:17.444Z,8.38
2022-12-08T19:37:43.869Z,9.88
2022-12-08T19:40:14.549Z,8.23
2022-12-08T19:42:40.957Z,8.75
2022-12-08T19:45:15.628Z,7.93
2022-12-08T19:47:42.171Z,8.15
2022-12-08T19:50:09.377Z,8.70
2022-12-08T19:52:35.790Z,9.07
2022-12-08T19:55:02.194Z,8.48
2022-12-08T19:57:28.627Z,8.52
2022-12-08T19:59:56.510Z,9.65
2022-12-08T20:02:23.131Z,10.50
2022-12-08T20:04:49.634Z,8.85
2022-12-08T20:07:16.044Z,8.63
2022-12-08T20:09:42.474Z,8.88
2022-12-08T20:12:08.877Z,7.72
2022-12-08T20:14:35.308Z,6.75
2022-12-08T20:17:01.704Z,5.97
2022-12-08T20:19:28.132Z,6.80
2022-12-08T20:21:54.538Z,6.93
2022-12-08T20:24:20.943Z,6.32
2022-12-08T20:26:47.422Z,6.45
2022-12-08T20:29:13.822Z,6.50
2022-12-08T20:31:40.318Z,5.75
2022-12-08T20:34:06.796Z,7.45
2022-12-08T20:36:33.280Z,6.50
2022-12-08T20:38:59.682Z,6.28
2022-12-08T20:41:26.096Z,6.30
2022-12-08T20:43:52.636Z,5.57
2022-12-08T20:46:19.212Z,6.30
2022-12-08T20:48:45.791Z,6.63
2022-12-08T20:51:19.282Z,6.25
2022-12-08T20:53:46.096Z,5.72
2022-12-08T20:56:23.042Z,5.40
2022-12-08T20:58:53.361Z,5.18
2022-12-08T21:01:22.045Z,5.32
2022-12-08T21:03:50.950Z,5.50
2022-12-08T21:06:21.343Z,5.18
2022-12-08T21:08:47.975Z,6.25
2022-12-08T21:11:18.686Z,4.70
2022-12-08T21:13:45.219Z,5.45
2022-12-08T21:16:15.615Z,5.88
2022-12-08T21:18:42.513Z,4.55
2022-12-08T21:21:11.009Z,6.18
2022-12-08T21:23:37.549Z,5.78
2022-12-08T21:26:16.235Z,6.15
2022-12-08T21:28:44.441Z,5.85
2022-12-08T21:31:17.409Z,6.60
2022-12-08T21:33:44.420Z,5.40
2022-12-08T21:36:12.720Z,5.03
2022-12-08T21:38:39.474Z,5.18
2022-12-08T21:41:07.963Z,4.63
2022-12-08T21:43:35.140Z,5.50
2022-12-08T21:46:01.684Z,5.07
2022-12-08T21:48:31.855Z,6.38
2022-12-08T21:51:03.898Z,4.20
2022-12-08T21:53:30.516Z,5.40
2022-12-08T21:56:00.626Z,5.50
2022-12-08T21:58:27.143Z,4.75
2022-12-08T22:00:53.609Z,5.20
2022-12-08T22:03:20.381Z,5.22
2022-12-08T22:05:47.091Z,5.28
2022-12-08T22:08:13.726Z,4.78
2022-12-08T22:10:40.279Z,5.15
2022-12-08T22:13:07.257Z,4.28
2022-12-08T22:15:33.854Z,5.78
2022-12-08T22:18:00.456Z,6.25
2022-12-08T22:20:27.068Z,4.65
2022-12-08T22:22:56.483Z,6.00
2022-12-08T22:25:22.989Z,5.57
2022-12-08T22:27:49.422Z,5.38
2022-12-08T22:30:15.956Z,4.85
2022-12-08T22:32:42.640Z,5.43
2022-12-08T22:35:09.623Z,5.63
2022-12-08T22:37:38.740Z,5.13
2022-12-08T22:40:06.562Z,4.82
2022-12-08T22:42:33.384Z,5.40
2022-12-08T22:44:59.963Z,4.75
2022-12-08T22:47:29.023Z,4.13
2022-12-08T22:49:55.996Z,4.63
2022-12-08T22:52:24.001Z,5.13
2022-12-08T22:54:50.470Z,5.05
2022-12-08T22:57:17.063Z,5.65
2022-12-08T22:59:43.669Z,4.25
2022-12-08T23:02:10.147Z,5.00
2022-12-08T23:04:36.631Z,5.38
2022-12-08T23:07:03.153Z,5.00
2022-12-08T23:09:29.583Z,4.95
2022-12-08T23:11:55.962Z,5.15
2022-12-08T23:14:22.651Z,4.45
2022-12-08T23:16:49.235Z,4.82
2022-12-08T23:19:15.757Z,4.80
2022-12-08T23:21:42.179Z,4.75
2022-12-08T23:24:08.640Z,4.78
2022-12-08T23:26:35.125Z,5.18
2022-12-08T23:29:01.832Z,4.75
2022-12-08T23:31:28.304Z,5.57
2022-12-08T23:33:54.854Z,5.18
2022-12-08T23:36:21.555Z,4.82
2022-12-08T23:38:48.053Z,5.25
2022-12-08T23:41:15.046Z,4.72
2022-12-08T23:43:49.001Z,5.07
2022-12-08T23:46:16.254Z,5.38
2022-12-08T23:48:42.818Z,4.47
2022-12-08T23:51:09.334Z,4.57
2022-12-08T23:53:36.215Z,6.10
2022-12-08T23:56:04.670Z,5.15
2022-12-08T23:58:31.278Z,4.75
